Time;durP1;ratioP1;P1;durP2;ratioP2;P2;SDS_P1;SDS_P2;PMS_P1;PMS_P2;Temp;Humidity;BMP_temperature;BMP_pressure;BME280_temperature;BME280_humidity;BME280_pressure;Samples;Min_cycle;Max_cycle;Signal;HPM_P1;HPM_P2
2023/03/08 00:00:04;;;;;;;2.37;2.10;;;16.60;54.80;17.40;99267.00;;;;5008205;28;20188;-45
2023/03/08 00:02:29;;;;;;;2.27;2.00;;;16.60;54.90;17.40;99272.00;;;;5008354;28;20188;-45
2023/03/08 00:04:55;;;;;;;3.87;2.00;;;16.60;54.90;17.30;99280.00;;;;5008511;28;20197;-45
2023/03/08 00:07:22;;;;;;;2.30;2.10;;;16.60;54.90;17.30;99269.00;;;;5008623;28;20254;-45
2023/03/08 00:09:47;;;;;;;2.20;1.93;;;16.50;54.90;17.30;99268.00;;;;5008236;28;20251;-45
2023/03/08 00:12:13;;;;;;;2.00;1.90;;;16.50;54.90;17.30;99267.00;;;;5013515;28;20179;-49
2023/03/08 00:14:39;;;;;;;2.10;2.00;;;16.50;55.00;17.10;99249.00;;;;5018206;28;20273;-45
2023/03/08 00:17:05;;;;;;;1.97;1.87;;;16.50;55.10;17.30;99256.00;;;;5017766;28;20203;-44
2023/03/08 00:19:30;;;;;;;2.47;2.13;;;16.40;55.10;17.30;99264.00;;;;5010128;28;20208;-44
2023/03/08 00:21:56;;;;;;;3.20;2.20;;;16.40;55.10;17.30;99268.00;;;;5009611;28;20297;-44
2023/03/08 00:24:22;;;;;;;1.90;1.80;;;16.40;55.10;17.30;99270.00;;;;5009037;28;20203;-45
2023/03/08 00:26:48;;;;;;;2.00;1.90;;;16.40;55.10;17.30;99272.00;;;;5008642;28;20250;-44
2023/03/08 00:29:14;;;;;;;1.90;1.80;;;16.40;55.20;17.30;99268.00;;;;5008478;28;20186;-44
2023/03/08 00:31:40;;;;;;;2.20;2.00;;;16.40;55.20;17.30;99258.00;;;;5008491;28;20218;-44
2023/03/08 00:34:06;;;;;;;1.90;1.80;;;16.30;55.10;17.30;99265.00;;;;5008233;28;20267;-43
2023/03/08 00:36:31;;;;;;;1.90;1.80;;;16.40;55.20;17.20;99268.00;;;;5008785;28;20211;-45
2023/03/08 00:38:57;;;;;;;1.83;1.73;;;16.30;55.10;17.20;99275.00;;;;5008419;28;20273;-44
2023/03/08 00:41:23;;;;;;;2.03;1.83;;;16.30;55.10;17.20;99273.00;;;;5007985;28;20685;-44
2023/03/08 00:43:49;;;;;;;1.90;1.80;;;16.30;55.10;17.20;99270.00;;;;5008087;28;20207;-44
2023/03/08 00:46:15;;;;;;;2.00;1.90;;;16.30;55.10;17.20;99280.00;;;;5007888;28;20207;-46
2023/03/08 00:48:41;;;;;;;1.83;1.73;;;16.30;55.20;17.20;99266.00;;;;5006856;28;20179;-44
2023/03/08 00:51:06;;;;;;;2.07;1.87;;;16.20;55.10;17.10;99268.00;;;;5007992;28;20232;-44
2023/03/08 00:53:33;;;;;;;2.00;1.80;;;16.20;55.10;17.10;99271.00;;;;5008612;28;20175;-44
2023/03/08 00:55:59;;;;;;;2.03;1.83;;;16.20;55.10;17.10;99261.00;;;;5008366;28;20259;-45
2023/03/08 00:58:27;;;;;;;2.00;1.90;;;16.20;55.20;17.10;99246.00;;;;5008247;28;20259;-45
2023/03/08 01:00:53;;;;;;;1.90;1.80;;;16.20;55.20;17.10;99251.00;;;;5008199;28;20176;-44
2023/03/08 01:03:20;;;;;;;1.93;1.83;;;16.20;55.20;17.10;99238.00;;;;5012429;28;20184;-44
2023/03/08 01:05:48;;;;;;;2.00;1.90;;;16.10;55.20;17.10;99249.00;;;;5008015;28;20823;-44
2023/03/08 01:08:14;;;;;;;1.97;1.87;;;16.10;55.20;17.10;99239.00;;;;5011463;28;20184;-45
2023/03/08 01:10:40;;;;;;;2.00;1.90;;;16.10;55.20;17.00;99238.00;;;;5011835;28;20168;-44
2023/03/08 01:13:07;;;;;;;2.40;1.90;;;16.10;55.20;17.00;99239.00;;;;5010203;28;20194;-46
2023/03/08 01:15:36;;;;;;;2.00;1.90;;;16.10;55.30;17.00;99228.00;;;;5011591;28;20311;-45
2023/03/08 01:18:03;;;;;;;2.03;1.90;;;16.00;55.20;17.00;99225.00;;;;5011564;28;20191;-45
2023/03/08 01:20:29;;;;;;;1.80;1.70;;;16.10;55.30;17.00;99216.00;;;;5011517;28;20193;-44
2023/03/08 01:22:54;;;;;;;2.00;1.90;;;16.10;55.30;17.00;99216.00;;;;5010987;28;20267;-45
2023/03/08 01:25:20;;;;;;;1.90;1.80;;;16.10;55.30;17.00;99215.00;;;;5011407;28;20203;-45
2023/03/08 01:27:46;;;;;;;2.17;2.00;;;16.00;55.20;17.00;99205.00;;;;5011146;28;20277;-44
2023/03/08 01:30:12;;;;;;;2.43;1.90;;;16.00;55.30;17.00;99222.00;;;;5011346;28;20189;-44
2023/03/08 01:32:38;;;;;;;2.13;1.70;;;16.00;55.30;16.90;99207.00;;;;5011455;28;20167;-44
2023/03/08 01:35:04;;;;;;;1.83;1.73;;;16.00;55.30;16.90;99211.00;;;;5011521;28;20199;-44
2023/03/08 01:37:30;;;;;;;2.20;2.00;;;16.00;55.30;16.90;99217.00;;;;5011435;28;20290;-44
2023/03/08 01:39:56;;;;;;;2.00;1.90;;;16.00;55.30;16.90;99206.00;;;;5011657;28;20175;-45
2023/03/08 01:42:22;;;;;;;1.80;1.70;;;15.90;55.20;16.90;99197.00;;;;5011671;28;20178;-45
2023/03/08 01:44:49;;;;;;;2.10;2.00;;;15.90;55.30;16.80;99205.00;;;;5011299;28;20201;-45
2023/03/08 01:47:20;;;;;;;2.00;1.90;;;15.90;55.30;16.80;99203.00;;;;5011779;28;20572;-46
2023/03/08 01:49:46;;;;;;;1.83;1.73;;;15.90;55.30;16.80;99212.00;;;;5013537;28;20226;-45
2023/03/08 01:52:24;;;;;;;2.00;1.90;;;15.90;55.40;16.80;99210.00;;;;5010891;28;20204;-45
2023/03/08 01:55:00;;;;;;;1.80;1.70;;;15.90;55.40;16.80;99203.00;;;;5010246;28;20187;-45
2023/03/08 01:57:30;;;;;;;2.10;1.90;;;15.80;55.40;16.70;99193.00;;;;5009740;28;20205;-45
2023/03/08 02:00:03;;;;;;;1.97;1.80;;;15.80;55.30;16.70;99188.00;;;;5009913;28;20552;-45
2023/03/08 02:02:33;;;;;;;1.90;1.80;;;15.80;55.30;16.70;99194.00;;;;5009841;28;20227;-45
2023/03/08 02:04:58;;;;;;;2.07;1.97;;;15.80;55.40;16.70;99184.00;;;;5009567;28;20200;-44
2023/03/08 02:07:24;;;;;;;1.90;1.80;;;15.80;55.40;16.70;99187.00;;;;5009860;28;20212;-44
2023/03/08 02:09:50;;;;;;;1.90;1.80;;;15.70;55.30;16.70;99175.00;;;;5010766;28;20202;-44
2023/03/08 02:12:15;;;;;;;1.70;1.60;;;15.70;55.30;16.70;99167.00;;;;5011467;28;20202;-44
2023/03/08 02:14:42;;;;;;;1.80;1.70;;;15.70;55.30;16.60;99158.00;;;;5012931;28;20648;-44
2023/03/08 02:17:07;;;;;;;2.00;1.90;;;15.70;55.50;16.60;99159.00;;;;5012622;28;20302;-44
2023/03/08 02:19:48;;;;;;;2.00;1.90;;;15.70;55.40;16.60;99153.00;;;;5012840;28;20594;-45
2023/03/08 02:22:14;;;;;;;2.00;1.90;;;15.70;55.50;16.60;99150.00;;;;5009389;28;20188;-45
2023/03/08 02:24:40;;;;;;;2.00;1.90;;;15.70;55.40;16.60;99150.00;;;;5009417;28;20210;-45
2023/03/08 02:27:13;;;;;;;1.90;1.80;;;15.70;55.60;16.60;99156.00;;;;5009141;28;20241;-45
2023/03/08 02:29:39;;;;;;;1.90;1.80;;;15.70;55.60;16.60;99149.00;;;;5008966;28;20255;-45
2023/03/08 02:32:05;;;;;;;2.07;1.80;;;15.60;55.50;16.50;99159.00;;;;5010120;28;20263;-45
2023/03/08 02:34:31;;;;;;;1.80;1.70;;;15.60;55.50;16.50;99159.00;;;;5010241;28;20179;-44
2023/03/08 02:36:56;;;;;;;2.10;1.90;;;15.60;55.80;16.50;99157.00;;;;5009878;28;20199;-44
2023/03/08 02:39:22;;;;;;;1.80;1.70;;;15.60;55.80;16.50;99159.00;;;;5010249;28;20198;-46
2023/03/08 02:41:48;;;;;;;1.83;1.73;;;15.50;55.60;16.50;99160.00;;;;5012303;28;20172;-45
2023/03/08 02:44:13;;;;;;;2.80;1.70;;;15.50;55.80;16.50;99155.00;;;;5011833;28;20207;-45
2023/03/08 02:46:39;;;;;;;2.10;1.90;;;15.50;55.70;16.50;99153.00;;;;5010612;28;20590;-44
2023/03/08 02:49:05;;;;;;;2.00;1.57;;;15.50;55.60;16.50;99154.00;;;;5010168;28;20234;-44
2023/03/08 02:51:30;;;;;;;1.60;1.50;;;15.50;55.60;16.50;99148.00;;;;5010240;28;20226;-44
2023/03/08 02:53:56;;;;;;;2.37;1.80;;;15.50;55.60;16.40;99140.00;;;;5009839;28;20184;-45
2023/03/08 02:56:22;;;;;;;3.07;1.63;;;15.50;55.60;16.40;99133.00;;;;5009653;28;20279;-45
2023/03/08 02:58:48;;;;;;;3.00;1.90;;;15.50;55.60;16.40;99121.00;;;;5009715;28;20732;-45
2023/03/08 03:01:13;;;;;;;1.80;1.70;;;15.50;55.60;16.40;99141.00;;;;5009760;28;20682;-45
2023/03/08 03:03:39;;;;;;;1.90;1.80;;;15.50;55.60;16.40;99132.00;;;;5009595;28;20234;-45
2023/03/08 03:06:16;;;;;;;1.90;1.80;;;15.50;55.60;16.40;99117.00;;;;5009696;28;20206;-45
2023/03/08 03:08:42;;;;;;;1.90;1.80;;;15.50;55.60;16.40;99122.00;;;;5009433;28;20250;-45
2023/03/08 03:11:26;;;;;;;1.80;1.70;;;15.40;55.50;16.30;99087.00;;;;5009445;28;20263;-45
2023/03/08 03:13:58;;;;;;;1.60;1.50;;;15.40;55.50;16.30;99112.00;;;;5009339;28;20184;-45
2023/03/08 03:16:24;;;;;;;1.70;1.60;;;15.40;55.50;16.30;99103.00;;;;5009395;28;20195;-45
2023/03/08 03:18:52;;;;;;;1.80;1.70;;;15.40;55.50;16.30;99098.00;;;;5009466;28;20271;-45
2023/03/08 03:21:18;;;;;;;1.50;1.40;;;15.40;55.60;16.30;99107.00;;;;5009854;28;20553;-46
2023/03/08 03:23:44;;;;;;;1.60;1.50;;;15.40;55.60;16.30;99102.00;;;;5011260;28;20198;-45
2023/03/08 03:26:15;;;;;;;1.80;1.70;;;15.40;55.60;16.20;99100.00;;;;5018684;28;20741;-43
2023/03/08 03:28:41;;;;;;;1.70;1.60;;;15.30;55.50;16.20;99094.00;;;;5018422;28;20175;-44
2023/03/08 03:31:15;;;;;;;1.63;1.53;;;15.30;55.60;16.20;99086.00;;;;5012845;28;20175;-45
2023/03/08 03:33:40;;;;;;;1.80;1.70;;;15.30;55.50;16.20;99082.00;;;;5009965;28;20176;-45
2023/03/08 03:36:08;;;;;;;1.50;1.40;;;15.30;56.20;16.20;99063.00;;;;5009474;28;20641;-44
2023/03/08 03:38:34;;;;;;;1.60;1.50;;;15.30;55.60;16.20;99079.00;;;;5009413;28;20179;-44
2023/03/08 03:41:02;;;;;;;1.87;1.77;;;15.20;55.50;16.20;99071.00;;;;5008854;28;20238;-45
2023/03/08 03:43:28;;;;;;;1.80;1.70;;;15.20;55.60;16.20;99072.00;;;;5008859;28;20172;-46
2023/03/08 03:45:58;;;;;;;1.70;1.60;;;15.20;55.60;16.20;99074.00;;;;5009140;28;20207;-44
2023/03/08 03:48:24;;;;;;;1.43;1.33;;;15.20;55.60;16.10;99074.00;;;;5010193;28;20204;-44
2023/03/08 03:50:57;;;;;;;1.50;1.40;;;15.20;55.60;16.10;99068.00;;;;5008620;28;20203;-44
2023/03/08 03:53:23;;;;;;;1.47;1.40;;;15.20;55.60;16.10;99087.00;;;;5009051;28;20170;-44
2023/03/08 03:55:49;;;;;;;1.70;1.37;;;15.20;55.60;16.10;99073.00;;;;5007529;28;20179;-44
2023/03/08 03:58:14;;;;;;;1.80;1.70;;;15.20;55.60;16.10;99068.00;;;;5008472;28;20188;-45
2023/03/08 04:00:40;;;;;;;1.60;1.50;;;15.20;55.60;16.10;99069.00;;;;5008433;28;20238;-45
2023/03/08 04:03:06;;;;;;;1.70;1.60;;;15.20;55.70;16.10;99061.00;;;;5008318;28;20176;-44
2023/03/08 04:05:32;;;;;;;1.60;1.50;;;15.10;55.60;16.00;99059.00;;;;5008540;28;20753;-44
2023/03/08 04:07:58;;;;;;;1.50;1.40;;;15.20;55.70;16.00;99058.00;;;;5008335;28;20199;-44
2023/03/08 04:10:23;;;;;;;1.50;1.40;;;15.10;55.70;16.00;99044.00;;;;5008125;28;20179;-44
2023/03/08 04:12:50;;;;;;;1.77;1.67;;;15.10;55.70;16.00;99040.00;;;;5008205;28;20226;-44
2023/03/08 04:15:16;;;;;;;1.60;1.50;;;15.10;55.70;16.00;99037.00;;;;5007224;28;20183;-44
2023/03/08 04:17:42;;;;;;;1.37;1.30;;;15.10;56.40;16.00;99035.00;;;;5008186;28;20196;-45
2023/03/08 04:20:08;;;;;;;1.30;1.30;;;15.10;55.70;16.00;99037.00;;;;5007988;28;20670;-45
2023/03/08 04:22:34;;;;;;;1.77;1.67;;;15.10;55.80;16.00;99038.00;;;;5007987;28;20254;-45
2023/03/08 04:25:00;;;;;;;1.50;1.40;;;15.10;55.70;16.00;99037.00;;;;5007770;28;20649;-45
2023/03/08 04:27:25;;;;;;;1.70;1.60;;;15.00;55.70;16.00;99035.00;;;;5007996;28;20204;-45
2023/03/08 04:29:51;;;;;;;4.53;1.87;;;15.00;56.20;15.90;99031.00;;;;5008577;28;20176;-45
2023/03/08 04:32:17;;;;;;;2.00;1.30;;;15.00;56.40;15.90;99023.00;;;;5010024;28;20183;-44
2023/03/08 04:34:43;;;;;;;2.77;1.60;;;14.90;56.50;15.90;99017.00;;;;5009453;28;20272;-44
2023/03/08 04:37:10;;;;;;;1.80;1.70;;;15.00;56.30;15.90;99015.00;;;;5008449;28;20252;-44
2023/03/08 04:39:36;;;;;;;1.57;1.47;;;15.00;56.20;15.90;99008.00;;;;5008315;28;20604;-44
2023/03/08 04:42:01;;;;;;;2.63;1.70;;;15.00;56.20;15.90;99003.00;;;;5010613;28;20234;-43
2023/03/08 04:44:27;;;;;;;3.07;1.90;;;15.00;56.20;15.80;98999.00;;;;5012054;28;20199;-44
2023/03/08 04:46:53;;;;;;;2.23;2.00;;;14.90;56.10;15.80;98993.00;;;;5012773;28;20207;-44
2023/03/08 04:49:19;;;;;;;2.23;2.10;;;14.90;56.10;15.80;98993.00;;;;5012924;28;20246;-44
2023/03/08 04:51:44;;;;;;;2.67;2.13;;;14.90;56.00;15.80;98979.00;;;;5015283;28;20174;-44
2023/03/08 04:54:10;;;;;;;3.50;2.17;;;14.90;56.00;15.80;98977.00;;;;5006075;28;20258;-45
2023/03/08 04:56:36;;;;;;;2.57;2.37;;;14.80;55.80;15.80;98985.00;;;;5013003;28;20206;-44
2023/03/08 04:59:02;;;;;;;2.50;2.30;;;14.80;55.70;15.70;98976.00;;;;5012992;28;20176;-44
2023/03/08 05:01:27;;;;;;;2.60;2.40;;;14.80;55.70;15.70;98973.00;;;;5012887;28;20781;-45
2023/03/08 05:03:53;;;;;;;2.40;2.20;;;14.80;55.60;15.70;98963.00;;;;5013132;28;20413;-45
2023/03/08 05:06:20;;;;;;;2.33;2.20;;;14.80;55.50;15.70;98956.00;;;;5012621;28;20238;-44
2023/03/08 05:08:46;;;;;;;2.50;2.30;;;14.80;55.50;15.70;98959.00;;;;5012802;28;20172;-44
2023/03/08 05:11:24;;;;;;;2.50;2.30;;;14.70;55.40;15.70;98954.00;;;;5013276;28;20242;-44
2023/03/08 05:13:51;;;;;;;3.23;2.33;;;14.70;55.40;15.60;98940.00;;;;5011535;28;20164;-44
2023/03/08 05:16:17;;;;;;;2.70;2.50;;;14.70;55.30;15.60;98944.00;;;;5012522;28;20221;-44
2023/03/08 05:18:42;;;;;;;2.80;2.60;;;14.70;55.40;15.60;98943.00;;;;5012330;28;20234;-45
2023/03/08 05:21:14;;;;;;;3.53;2.50;;;14.70;55.30;15.60;98939.00;;;;5012141;28;20701;-45
2023/03/08 05:23:40;;;;;;;3.90;2.60;;;14.70;55.40;15.60;98935.00;;;;5004582;28;20175;-44
2023/03/08 05:26:07;;;;;;;3.07;2.60;;;14.70;55.30;15.60;98925.00;;;;5012415;28;20683;-45
2023/03/08 05:28:34;;;;;;;3.00;2.70;;;14.70;55.30;15.50;98927.00;;;;5012151;28;20249;-43
2023/03/08 05:31:05;;;;;;;3.70;2.80;;;14.60;55.10;15.50;98917.00;;;;5011780;28;20174;-44
2023/03/08 05:33:31;;;;;;;2.67;2.47;;;14.60;55.10;15.50;98918.00;;;;5012217;28;20183;-43
2023/03/08 05:35:57;;;;;;;3.70;2.60;;;14.60;55.10;15.50;98913.00;;;;5011739;28;20257;-44
2023/03/08 05:38:22;;;;;;;2.80;2.60;;;14.60;55.10;15.50;98913.00;;;;5010741;28;20259;-44
2023/03/08 05:40:48;;;;;;;2.87;2.27;;;14.60;55.20;15.50;98904.00;;;;5011704;28;20715;-43
2023/03/08 05:43:15;;;;;;;2.80;2.57;;;14.60;55.30;15.50;98897.00;;;;5012114;28;20725;-44
2023/03/08 05:45:41;;;;;;;4.10;2.23;;;14.50;55.30;15.50;98897.00;;;;5011593;28;20222;-44
2023/03/08 05:48:06;;;;;;;3.07;2.30;;;14.50;55.30;15.50;98886.00;;;;5010678;28;20276;-43
2023/03/08 05:50:32;;;;;;;3.70;2.30;;;14.50;55.40;15.40;98883.00;;;;5011126;28;20203;-44
2023/03/08 05:52:58;;;;;;;2.47;2.27;;;14.50;55.40;15.40;98877.00;;;;5011083;28;20164;-44
2023/03/08 05:55:24;;;;;;;2.10;2.00;;;14.50;55.40;15.40;98876.00;;;;5012507;28;20183;-44
2023/03/08 05:57:49;;;;;;;2.43;2.00;;;14.50;55.40;15.40;98869.00;;;;5013602;28;20275;-44
2023/03/08 06:00:16;;;;;;;2.80;2.03;;;14.50;55.40;15.40;98874.00;;;;5011267;28;20310;-45
2023/03/08 06:02:42;;;;;;;2.10;1.87;;;14.50;55.40;15.40;98865.00;;;;5010346;28;20176;-45
2023/03/08 06:05:08;;;;;;;2.20;2.10;;;14.50;55.50;15.40;98862.00;;;;5010649;28;20202;-45
2023/03/08 06:07:33;;;;;;;4.00;1.90;;;14.40;55.70;15.40;98850.00;;;;5011046;28;20745;-44
2023/03/08 06:09:59;;;;;;;2.00;1.80;;;14.50;55.70;15.40;98844.00;;;;5010161;28;20171;-45
2023/03/08 06:12:25;;;;;;;2.10;1.90;;;14.40;55.70;15.40;98834.00;;;;5009923;28;20243;-44
2023/03/08 06:14:51;;;;;;;3.23;2.00;;;14.50;55.80;15.40;98835.00;;;;5010632;28;20175;-45
2023/03/08 06:17:16;;;;;;;1.80;1.70;;;14.50;55.90;15.40;98828.00;;;;5011198;28;20754;-45
2023/03/08 06:19:42;;;;;;;1.80;1.70;;;14.50;56.00;15.40;98815.00;;;;5009862;28;20249;-44
2023/03/08 06:22:08;;;;;;;2.00;1.80;;;14.50;55.90;15.40;98802.00;;;;5010938;28;20250;-44
2023/03/08 06:24:33;;;;;;;2.27;1.90;;;14.60;55.90;15.40;98808.00;;;;5010724;28;20598;-44
2023/03/08 06:26:59;;;;;;;1.77;1.60;;;14.70;56.00;15.50;98806.00;;;;5012748;28;20574;-44
2023/03/08 06:29:25;;;;;;;1.77;1.60;;;14.70;55.90;15.50;98793.00;;;;5013301;28;20179;-44
2023/03/08 06:31:51;;;;;;;1.70;1.60;;;14.70;55.90;15.50;98784.00;;;;5013644;28;20175;-45
2023/03/08 06:34:16;;;;;;;2.37;1.67;;;14.80;55.90;15.60;98778.00;;;;5009942;28;20204;-44
2023/03/08 06:36:42;;;;;;;1.70;1.60;;;14.80;55.90;15.60;98758.00;;;;5010665;28;20199;-44
2023/03/08 06:39:08;;;;;;;1.70;1.60;;;14.80;55.90;15.60;98764.00;;;;5010644;28;20202;-45
2023/03/08 06:41:34;;;;;;;1.60;1.50;;;14.90;56.00;15.70;98752.00;;;;5010482;28;20175;-45
2023/03/08 06:44:00;;;;;;;1.50;1.40;;;14.90;56.00;15.70;98754.00;;;;5010352;28;20618;-45
2023/03/08 06:46:26;;;;;;;1.60;1.50;;;15.00;56.00;15.70;98756.00;;;;5010597;28;20203;-44
2023/03/08 06:48:52;;;;;;;1.40;1.30;;;15.00;56.00;15.70;98748.00;;;;5010833;28;20227;-44
2023/03/08 06:51:18;;;;;;;1.50;1.40;;;15.00;56.00;15.80;98735.00;;;;5010287;28;20764;-44
2023/03/08 06:53:45;;;;;;;1.57;1.47;;;15.00;56.00;15.80;98743.00;;;;5009327;28;20204;-44
2023/03/08 06:56:13;;;;;;;1.40;1.30;;;15.00;56.00;15.80;98720.00;;;;5002506;28;20246;-44
2023/03/08 06:58:39;;;;;;;1.67;1.57;;;15.00;56.00;15.80;98719.00;;;;5010393;28;20168;-44
2023/03/08 07:01:05;;;;;;;1.40;1.30;;;15.00;56.00;15.90;98711.00;;;;5009776;28;20179;-44
2023/03/08 07:03:31;;;;;;;1.80;1.47;;;15.00;56.00;15.80;98713.00;;;;5009313;28;20168;-44
2023/03/08 07:06:01;;;;;;;1.20;1.20;;;15.10;56.10;15.90;98706.00;;;;5009821;28;20611;-44
2023/03/08 07:08:27;;;;;;;1.60;1.50;;;15.10;56.00;15.90;98704.00;;;;5008585;28;20175;-44
2023/03/08 07:10:53;;;;;;;1.43;1.30;;;15.10;56.10;15.90;98697.00;;;;5010353;28;20662;-44
2023/03/08 07:13:20;;;;;;;1.20;1.20;;;15.10;56.10;15.90;98696.00;;;;5010175;28;20539;-44
2023/03/08 07:15:46;;;;;;;1.60;1.50;;;15.10;56.10;15.90;98691.00;;;;5010701;28;20203;-43
2023/03/08 07:18:12;;;;;;;1.30;1.30;;;15.10;56.20;15.90;98683.00;;;;5010220;28;20658;-44
2023/03/08 07:20:38;;;;;;;1.30;1.30;;;15.10;56.20;15.90;98696.00;;;;5014150;28;20266;-44
2023/03/08 07:23:03;;;;;;;1.50;1.40;;;15.10;56.20;15.90;98685.00;;;;5011323;28;20204;-44
2023/03/08 07:25:29;;;;;;;1.30;1.30;;;15.10;56.20;15.90;98678.00;;;;5008758;28;20678;-44
2023/03/08 07:27:55;;;;;;;1.50;1.40;;;15.10;56.10;15.90;98671.00;;;;5009852;28;20206;-44
2023/03/08 07:30:21;;;;;;;1.27;1.27;;;15.10;56.10;15.90;98676.00;;;;5008627;28;20617;-43
2023/03/08 07:32:46;;;;;;;1.40;1.30;;;15.10;56.20;15.90;98667.00;;;;5009716;28;20572;-43
2023/03/08 07:35:13;;;;;;;1.23;1.23;;;15.10;56.20;15.90;98670.00;;;;5009753;28;20233;-43
2023/03/08 07:37:40;;;;;;;1.30;1.20;;;15.10;56.30;15.90;98676.00;;;;5009583;28;20430;-44
2023/03/08 07:40:06;;;;;;;1.20;1.20;;;15.10;56.30;15.90;98673.00;;;;5009685;28;20194;-44
2023/03/08 07:42:32;;;;;;;1.33;1.33;;;15.10;56.40;16.00;98670.00;;;;5009656;28;20175;-43
2023/03/08 07:44:58;;;;;;;1.33;1.33;;;15.10;56.30;16.00;98657.00;;;;5009135;28;20261;-44
2023/03/08 07:47:23;;;;;;;1.90;1.20;;;15.10;56.30;16.00;98668.00;;;;5009603;28;20778;-44
2023/03/08 07:49:49;;;;;;;0.97;0.97;;;15.10;56.40;16.00;98664.00;;;;5009220;28;20589;-44
2023/03/08 07:52:15;;;;;;;1.10;1.10;;;15.10;56.30;16.00;98657.00;;;;5009510;28;20176;-43
2023/03/08 07:54:42;;;;;;;1.50;1.40;;;15.10;56.30;16.00;98653.00;;;;5009317;28;20175;-45
2023/03/08 07:57:13;;;;;;;1.10;1.10;;;15.10;56.30;16.00;98646.00;;;;5009298;28;20230;-43
2023/03/08 07:59:38;;;;;;;1.23;1.20;;;15.10;56.90;16.00;98645.00;;;;5009167;28;20199;-44
2023/03/08 08:02:04;;;;;;;1.17;1.13;;;15.10;56.40;16.00;98641.00;;;;5010399;28;20214;-44
2023/03/08 08:04:30;;;;;;;1.23;1.23;;;15.10;56.40;16.00;98644.00;;;;5009109;28;20191;-43
2023/03/08 08:06:58;;;;;;;1.20;1.10;;;15.10;56.40;16.00;98632.00;;;;5009202;28;20199;-43
2023/03/08 08:09:24;;;;;;;0.90;0.90;;;15.10;56.40;16.00;98647.00;;;;5009202;28;20188;-43
2023/03/08 08:11:49;;;;;;;1.13;1.13;;;15.10;56.30;16.00;98636.00;;;;5009118;28;20172;-44
2023/03/08 08:14:15;;;;;;;1.10;1.10;;;15.10;56.30;16.00;98638.00;;;;5008891;28;20240;-44
2023/03/08 08:16:41;;;;;;;1.07;1.07;;;15.10;56.30;16.00;98639.00;;;;5008840;28;20281;-44
2023/03/08 08:19:09;;;;;;;1.40;1.30;;;15.10;56.90;16.00;98624.00;;;;5008828;28;20693;-44
2023/03/08 08:21:35;;;;;;;1.00;1.00;;;15.10;56.30;16.00;98622.00;;;;5007496;28;20183;-45
2023/03/08 08:24:00;;;;;;;1.10;1.10;;;15.10;56.40;16.00;98618.00;;;;5008510;28;20191;-43
2023/03/08 08:26:27;;;;;;;1.37;1.30;;;15.10;56.40;16.00;98615.00;;;;5009106;28;20235;-44
2023/03/08 08:28:53;;;;;;;1.93;1.23;;;15.10;56.40;16.00;98610.00;;;;5008566;28;20669;-44
2023/03/08 08:31:21;;;;;;;1.17;1.17;;;15.10;56.40;16.00;98598.00;;;;5008572;28;20176;-43
2023/03/08 08:33:47;;;;;;;1.00;1.00;;;15.10;56.50;16.00;98600.00;;;;5008582;28;20686;-43
2023/03/08 08:36:18;;;;;;;1.40;1.30;;;15.20;56.50;16.00;98591.00;;;;5008825;28;20282;-43
2023/03/08 08:38:47;;;;;;;1.40;1.30;;;15.20;56.60;16.00;98575.00;;;;5009130;28;20198;-45
2023/03/08 08:41:14;;;;;;;1.27;1.27;;;15.20;56.60;16.00;98580.00;;;;5008690;28;20638;-44
2023/03/08 08:43:40;;;;;;;1.20;1.10;;;15.30;56.70;16.10;98569.00;;;;5008582;28;20190;-45
2023/03/08 08:46:06;;;;;;;3.47;1.43;;;15.30;56.70;16.10;98572.00;;;;5008846;28;20211;-44
2023/03/08 08:48:32;;;;;;;1.13;1.10;;;15.40;56.80;16.20;98567.00;;;;5008956;28;20843;-45
2023/03/08 08:50:58;;;;;;;1.00;1.00;;;15.50;57.00;16.30;98560.00;;;;5008381;28;20210;-44
2023/03/08 08:53:24;;;;;;;1.60;1.23;;;15.60;57.00;16.30;98562.00;;;;5007288;28;20267;-45
2023/03/08 08:55:50;;;;;;;1.87;1.27;;;15.60;56.90;16.40;98556.00;;;;5007662;28;20338;-44
2023/03/08 08:58:15;;;;;;;2.03;1.10;;;15.70;56.90;16.50;98558.00;;;;5006174;28;20186;-44
2023/03/08 09:00:41;;;;;;;2.03;1.30;;;15.80;56.90;16.60;98564.00;;;;5005966;28;20191;-45
2023/03/08 09:03:07;;;;;;;1.10;1.07;;;15.90;56.80;16.70;98566.00;;;;5006265;28;20225;-44
2023/03/08 09:05:33;;;;;;;1.87;1.10;;;16.00;56.70;16.70;98551.00;;;;5007143;28;20208;-44
2023/03/08 09:08:00;;;;;;;2.67;1.30;;;16.00;56.60;16.80;98550.00;;;;5005517;28;20204;-44
2023/03/08 09:10:30;;;;;;;1.83;1.37;;;16.20;57.40;16.90;98526.00;;;;5007538;28;20186;-44
2023/03/08 09:12:57;;;;;;;2.27;1.27;;;16.20;57.20;17.00;98523.00;;;;5006548;28;20175;-44
2023/03/08 09:15:23;;;;;;;2.23;1.20;;;16.30;57.00;16.80;98518.00;;;;5006926;28;20713;-45
2023/03/08 09:17:49;;;;;;;1.17;1.17;;;16.30;56.80;17.10;98522.00;;;;5006708;28;20203;-44
2023/03/08 09:20:15;;;;;;;1.30;1.20;;;16.40;56.90;17.20;98518.00;;;;5006533;28;20224;-44
2023/03/08 09:22:41;;;;;;;1.73;1.20;;;16.50;57.00;17.30;98519.00;;;;5007058;28;20179;-45
2023/03/08 09:25:08;;;;;;;3.57;1.47;;;16.60;57.10;17.40;98529.00;;;;5006790;28;20210;-44
2023/03/08 09:27:34;;;;;;;1.93;1.50;;;16.60;57.30;17.40;98518.00;;;;5008659;28;20247;-44
2023/03/08 09:29:59;;;;;;;1.57;1.47;;;16.70;57.30;17.50;98511.00;;;;5010755;28;20176;-44
2023/03/08 09:32:25;;;;;;;3.10;1.63;;;16.70;57.30;17.50;98511.00;;;;5010642;28;20711;-43
2023/03/08 09:34:52;;;;;;;2.57;1.50;;;16.80;57.30;17.60;98512.00;;;;5010454;28;20183;-43
2023/03/08 09:37:17;;;;;;;1.53;1.43;;;16.70;57.20;17.60;98503.00;;;;5009303;28;20574;-44
2023/03/08 09:39:44;;;;;;;2.20;1.70;;;16.80;57.00;17.60;98509.00;;;;5009834;28;20177;-44
2023/03/08 09:42:19;;;;;;;3.00;1.40;;;16.80;56.90;17.60;98501.00;;;;5006882;28;20202;-45
2023/03/08 09:45:12;;;;;;;1.83;1.57;;;16.80;56.90;17.60;98497.00;;;;5007442;28;20215;-43
2023/03/08 09:48:09;;;;;;;2.27;1.60;;;16.80;56.80;17.70;98492.00;;;;5008828;28;20201;-44
2023/03/08 09:50:48;;;;;;;2.13;1.40;;;16.80;56.70;17.70;98479.00;;;;5010038;28;20175;-44
2023/03/08 09:53:33;;;;;;;1.63;1.53;;;16.80;56.70;17.70;98477.00;;;;5008348;28;20558;-44
2023/03/08 09:56:18;;;;;;;2.17;1.43;;;16.90;56.80;17.70;98487.00;;;;5008063;28;20832;-45
2023/03/08 09:59:10;;;;;;;1.47;1.37;;;16.80;56.80;17.70;98488.00;;;;5008018;28;20182;-45
2023/03/08 10:01:50;;;;;;;1.67;1.40;;;16.90;56.80;17.70;98488.00;;;;5004464;28;20713;-46
2023/03/08 10:04:57;;;;;;;1.20;1.20;;;16.80;56.70;17.70;98486.00;;;;5010189;28;20210;-44
2023/03/08 10:07:44;;;;;;;1.60;1.50;;;16.90;56.80;17.70;98485.00;;;;5009228;28;20234;-45
2023/03/08 10:10:38;;;;;;;2.80;1.60;;;16.90;56.80;17.70;98485.00;;;;5009148;28;20204;-44
2023/03/08 10:13:32;;;;;;;1.50;1.40;;;16.90;56.80;17.70;98476.00;;;;5009113;28;20202;-44
2023/03/08 10:16:11;;;;;;;1.60;1.50;;;16.90;56.70;17.70;98483.00;;;;5010127;28;20176;-44
2023/03/08 10:19:05;;;;;;;1.43;1.33;;;17.00;56.70;17.70;98476.00;;;;5008149;28;20177;-44
2023/03/08 10:21:32;;;;;;;1.20;1.10;;;17.00;56.70;17.70;98473.00;;;;5008727;28;20183;-44
2023/03/08 10:24:15;;;;;;;1.33;1.23;;;17.00;56.70;17.70;98473.00;;;;5009730;28;20219;-44
2023/03/08 10:26:42;;;;;;;1.50;1.40;;;17.00;56.60;17.80;98466.00;;;;5008907;28;20663;-43
2023/03/08 10:29:11;;;;;;;1.50;1.40;;;17.00;56.50;17.80;98461.00;;;;5007855;28;20168;-44
2023/03/08 10:31:36;;;;;;;1.60;1.50;;;17.00;56.40;17.80;98465.00;;;;5008178;28;20173;-43
2023/03/08 10:34:12;;;;;;;1.40;1.30;;;17.10;56.40;17.80;98456.00;;;;5009341;28;20172;-43
2023/03/08 10:37:00;;;;;;;1.40;1.30;;;17.10;56.50;17.90;98471.00;;;;5007143;28;20196;-44
2023/03/08 10:39:26;;;;;;;1.70;1.60;;;17.10;56.50;17.90;98471.00;;;;5008334;28;20722;-44
2023/03/08 10:42:13;;;;;;;1.60;1.47;;;17.20;56.50;17.90;98475.00;;;;5013487;28;20174;-44
2023/03/08 10:44:51;;;;;;;1.40;1.30;;;17.20;56.50;17.90;98473.00;;;;5016535;28;20197;-44
2023/03/08 10:47:25;;;;;;;1.53;1.43;;;17.20;56.40;17.90;98471.00;;;;5008029;28;20558;-44
2023/03/08 10:50:08;;;;;;;1.33;1.27;;;17.20;56.50;18.00;98474.00;;;;5011103;28;20168;-44
2023/03/08 10:52:34;;;;;;;1.50;1.40;;;17.20;56.40;18.00;98466.00;;;;5011213;28;20172;-43
2023/03/08 10:55:25;;;;;;;1.30;1.30;;;17.20;56.40;18.00;98460.00;;;;5010613;28;20198;-44
2023/03/08 10:57:57;;;;;;;1.97;1.40;;;17.20;56.40;18.00;98468.00;;;;5009209;28;20604;-44